Terminal Aerodrome Forecast
Issued by NWS

Home | Current Version | Previous Version | Text Only | Print | Product List | Glossary Off
Versions: 1 2 3 4 5 6 7 8 9 10 11 12 13 14 15 16 17 18 19 20 21

000
FTUS45 KGGW 181700
TAFOLF
TAF
KOLF 181720Z 1818/1918 21009KT P6SM SCT130
     FM190000 25007KT P6SM BKN110
     FM190600 VRB06KT P6SM SCT100
     FM191500 28013KT P6SM SCT120=

USA.gov is the U.S. government's official web portal to all federal, state and local government web resources and services.